createdAt,value
2023-02-18T00:00:31.872Z,12.50
2023-02-18T00:04:34.825Z,12.40
2023-02-18T00:08:39.011Z,12.40
2023-02-18T00:12:42.245Z,12.70
2023-02-18T00:16:45.918Z,12.50
2023-02-18T00:20:48.682Z,12.60
2023-02-18T00:24:53.181Z,12.40
2023-02-18T00:28:55.960Z,12.60
2023-02-18T00:32:58.755Z,12.40
2023-02-18T00:37:02.676Z,12.40
2023-02-18T00:41:07.798Z,12.30
2023-02-18T00:45:10.939Z,12.40
2023-02-18T00:49:13.778Z,12.40
2023-02-18T00:53:17.556Z,12.40
2023-02-18T00:57:23.823Z,12.30
2023-02-18T01:01:28.932Z,12.50
2023-02-18T01:05:31.743Z,12.60
2023-02-18T01:09:34.543Z,12.40
2023-02-18T01:13:39.249Z,12.30
2023-02-18T01:17:43.053Z,12.20
2023-02-18T01:21:45.832Z,12.30
2023-02-18T01:25:48.728Z,12.20
2023-02-18T01:29:53.024Z,12.00
2023-02-18T01:33:56.017Z,12.10
2023-02-18T01:37:58.864Z,12.20
2023-02-18T01:42:02.402Z,12.20
2023-02-18T01:46:16.019Z,12.10
2023-02-18T01:50:21.506Z,12.10
2023-02-18T01:54:30.069Z,12.00
2023-02-18T01:58:33.769Z,12.10
2023-02-18T02:02:43.409Z,12.20
2023-02-18T02:06:46.252Z,12.10
2023-02-18T02:11:09.566Z,12.20
2023-02-18T02:15:34.816Z,12.00
2023-02-18T02:20:17.643Z,12.10
2023-02-18T02:24:59.291Z,12.10
2023-02-18T02:29:35.703Z,12.20
2023-02-18T02:34:07.534Z,12.20
2023-02-18T02:38:19.842Z,12.20
2023-02-18T02:42:30.864Z,12.10
2023-02-18T02:46:39.940Z,12.00
2023-02-18T02:50:48.066Z,12.20
2023-02-18T02:54:53.155Z,12.30
2023-02-18T02:59:00.664Z,12.20
2023-02-18T03:03:37.748Z,12.10
2023-02-18T03:08:05.458Z,12.00
2023-02-18T03:12:19.861Z,12.20
2023-02-18T03:16:29.160Z,12.10
2023-02-18T03:20:37.264Z,12.00
2023-02-18T03:24:43.433Z,12.10
2023-02-18T03:28:53.384Z,12.10
2023-02-18T03:33:00.305Z,12.00
2023-02-18T03:37:04.595Z,12.00
2023-02-18T03:41:07.740Z,12.00
2023-02-18T03:45:13.348Z,12.00
2023-02-18T03:49:17.547Z,12.00
2023-02-18T03:53:20.441Z,11.90
2023-02-18T03:57:23.265Z,11.90
2023-02-18T04:01:27.625Z,11.90
2023-02-18T04:05:30.561Z,11.80
2023-02-18T04:09:33.372Z,11.90
2023-02-18T04:13:36.172Z,12.00
2023-02-18T04:17:40.491Z,12.10
2023-02-18T04:21:43.285Z,12.00
2023-02-18T04:25:46.101Z,11.90
2023-02-18T04:29:48.900Z,11.90
2023-02-18T04:33:53.014Z,11.90
2023-02-18T04:37:55.784Z,11.80
2023-02-18T04:41:58.575Z,11.80
2023-02-18T04:46:01.377Z,12.00
2023-02-18T04:50:06.345Z,11.80
2023-02-18T04:54:09.106Z,11.90
2023-02-18T04:58:11.902Z,11.80
2023-02-18T05:02:14.727Z,11.80
2023-02-18T05:06:18.889Z,11.80
2023-02-18T05:10:21.961Z,11.90
2023-02-18T05:14:24.738Z,11.90
2023-02-18T05:18:27.561Z,11.80
2023-02-18T05:22:31.732Z,11.80
2023-02-18T05:26:34.514Z,11.80
2023-02-18T05:30:37.364Z,11.80
2023-02-18T05:34:40.284Z,11.80
2023-02-18T05:38:44.451Z,11.80
2023-02-18T05:42:47.338Z,11.70
2023-02-18T05:46:50.200Z,11.80
2023-02-18T05:50:55.261Z,11.70
2023-02-18T05:54:59.409Z,11.70
2023-02-18T05:59:02.289Z,11.60
2023-02-18T06:03:05.188Z,11.70
2023-02-18T06:07:08.084Z,11.60
2023-02-18T06:11:12.291Z,11.70
2023-02-18T06:15:15.058Z,11.70
2023-02-18T06:19:17.948Z,11.60
2023-02-18T06:23:20.780Z,11.60
2023-02-18T06:27:24.924Z,11.50
2023-02-18T06:31:27.934Z,11.70
2023-02-18T06:35:30.879Z,11.70
2023-02-18T06:39:33.655Z,11.70
2023-02-18T06:43:37.984Z,11.60
2023-02-18T06:47:40.826Z,11.70
2023-02-18T06:51:43.617Z,11.70
2023-02-18T06:55:47.219Z,11.70
2023-02-18T06:59:51.924Z,11.70
2023-02-18T07:03:54.725Z,11.70
2023-02-18T07:07:57.568Z,11.80
2023-02-18T07:12:00.469Z,11.80
2023-02-18T07:16:04.924Z,11.90
2023-02-18T07:20:09.524Z,11.90
2023-02-18T07:24:12.330Z,11.80
2023-02-18T07:28:15.152Z,11.90
2023-02-18T07:32:20.661Z,11.80
2023-02-18T07:36:23.444Z,11.80
2023-02-18T07:40:26.320Z,11.90
2023-02-18T07:44:29.145Z,11.80
2023-02-18T07:48:33.272Z,11.80
2023-02-18T07:52:36.207Z,11.90
2023-02-18T07:56:39.006Z,11.90
2023-02-18T08:00:41.792Z,12.00
2023-02-18T08:04:46.024Z,12.00
2023-02-18T08:08:48.834Z,12.10
2023-02-18T08:12:51.637Z,12.10
2023-02-18T08:16:55.056Z,12.10
2023-02-18T08:20:59.493Z,12.20
2023-02-18T08:25:02.269Z,12.30
2023-02-18T08:29:05.367Z,12.30
2023-02-18T08:33:08.149Z,12.20
2023-02-18T08:37:12.361Z,12.20
2023-02-18T08:41:15.688Z,12.30
2023-02-18T08:45:19.925Z,12.30
2023-02-18T08:49:24.117Z,12.30
2023-02-18T08:53:28.395Z,12.40
2023-02-18T08:57:31.173Z,12.40
2023-02-18T09:01:34.043Z,12.40
2023-02-18T09:05:36.801Z,12.50
2023-02-18T09:09:41.958Z,12.70
2023-02-18T09:13:44.833Z,12.90
2023-02-18T09:17:47.588Z,13.00
2023-02-18T09:21:53.067Z,13.10
2023-02-18T09:25:57.498Z,13.20
2023-02-18T09:30:00.391Z,13.30
2023-02-18T09:34:04.110Z,13.50
2023-02-18T09:38:06.917Z,13.60
2023-02-18T09:42:15.760Z,13.90
2023-02-18T09:46:21.338Z,14.60
2023-02-18T09:50:27.081Z,15.50
2023-02-18T09:54:29.918Z,16.50
2023-02-18T09:58:35.303Z,16.60
2023-02-18T10:02:40.537Z,17.30
2023-02-18T10:06:45.820Z,18.30
2023-02-18T10:10:49.066Z,19.00
2023-02-18T10:14:55.676Z,19.40
2023-02-18T10:19:02.420Z,19.10
2023-02-18T10:23:06.312Z,19.60
2023-02-18T10:27:10.210Z,20.50
2023-02-18T10:31:19.830Z,21.00
2023-02-18T10:35:26.019Z,21.40
2023-02-18T10:39:46.237Z,21.30
2023-02-18T10:43:57.149Z,21.50
2023-02-18T10:48:13.133Z,21.50
2023-02-18T10:52:19.647Z,21.40
2023-02-18T10:56:35.591Z,21.50
2023-02-18T11:00:40.973Z,21.40
2023-02-18T11:04:47.304Z,21.50
2023-02-18T11:08:51.227Z,22.00
2023-02-18T11:12:58.768Z,22.80
2023-02-18T11:17:10.742Z,22.20
2023-02-18T11:21:30.251Z,22.00
2023-02-18T11:25:35.192Z,22.10
2023-02-18T11:29:38.166Z,22.00
2023-02-18T11:33:44.738Z,22.20
2023-02-18T11:37:49.802Z,22.90
2023-02-18T11:41:57.270Z,23.10
2023-02-18T11:46:10.981Z,22.90
2023-02-18T11:50:21.851Z,23.00
2023-02-18T11:54:30.065Z,22.90
2023-02-18T11:58:39.463Z,22.00
2023-02-18T12:02:42.934Z,21.30
2023-02-18T12:06:53.418Z,20.90
2023-02-18T12:11:02.970Z,20.90
2023-02-18T12:15:06.264Z,21.10
2023-02-18T12:19:26.790Z,21.60
2023-02-18T12:23:37.206Z,20.90
2023-02-18T12:27:50.343Z,20.40
2023-02-18T12:32:03.258Z,20.40
2023-02-18T12:36:15.268Z,20.50
2023-02-18T12:40:42.754Z,20.20
2023-02-18T12:45:02.974Z,19.90
2023-02-18T12:49:23.644Z,20.00
2023-02-18T12:53:44.405Z,19.40
2023-02-18T12:57:53.872Z,19.00
2023-02-18T13:02:05.785Z,18.70
2023-02-18T13:06:22.853Z,18.10
2023-02-18T13:11:00.476Z,18.00
2023-02-18T13:15:07.582Z,17.80
2023-02-18T13:19:21.482Z,17.80
2023-02-18T13:23:29.046Z,17.70
2023-02-18T13:27:37.723Z,17.70
2023-02-18T13:31:48.397Z,17.70
2023-02-18T13:36:01.449Z,17.60
2023-02-18T13:40:05.196Z,17.70
2023-02-18T13:44:33.077Z,17.60
2023-02-18T13:48:43.276Z,17.50
2023-02-18T13:52:47.448Z,17.40
2023-02-18T13:56:55.349Z,17.30
2023-02-18T14:01:03.609Z,17.30
2023-02-18T14:05:21.400Z,17.60
2023-02-18T14:09:41.800Z,17.30
2023-02-18T14:13:49.766Z,17.10
2023-02-18T14:18:10.271Z,16.70
2023-02-18T14:22:30.097Z,16.80
2023-02-18T14:26:37.952Z,16.60
2023-02-18T14:30:43.184Z,16.50
2023-02-18T14:35:08.121Z,16.20
2023-02-18T14:39:27.532Z,16.10
2023-02-18T14:43:49.385Z,16.10
2023-02-18T14:48:08.229Z,16.00
2023-02-18T14:52:20.744Z,15.90
2023-02-18T14:56:24.287Z,15.90
2023-02-18T15:00:34.373Z,16.00
2023-02-18T15:04:37.689Z,15.90
2023-02-18T15:08:40.749Z,15.80
2023-02-18T15:12:43.689Z,15.80
2023-02-18T15:16:49.384Z,15.60
2023-02-18T15:20:52.302Z,15.60
2023-02-18T15:24:56.650Z,15.60
2023-02-18T15:29:01.613Z,15.50
2023-02-18T15:33:13.047Z,15.40
2023-02-18T15:37:16.721Z,15.50
2023-02-18T15:41:22.665Z,15.40
2023-02-18T15:45:30.811Z,15.30
2023-02-18T15:49:36.536Z,15.30
2023-02-18T15:53:43.205Z,15.10
2023-02-18T15:57:46.105Z,15.10
2023-02-18T16:01:51.094Z,15.00
2023-02-18T16:06:11.504Z,14.90
2023-02-18T16:10:21.112Z,14.80
2023-02-18T16:14:30.702Z,14.70
2023-02-18T16:18:39.979Z,14.70
2023-02-18T16:22:47.576Z,14.70
2023-02-18T16:26:52.664Z,14.60
2023-02-18T16:30:55.460Z,14.60
2023-02-18T16:34:58.300Z,14.50
2023-02-18T16:39:02.701Z,14.50
2023-02-18T16:43:12.137Z,14.50
2023-02-18T16:47:17.301Z,14.50
2023-02-18T16:51:24.905Z,14.30
2023-02-18T16:55:30.859Z,14.30
2023-02-18T16:59:33.624Z,14.30
2023-02-18T17:03:36.369Z,14.30
2023-02-18T17:07:39.075Z,14.40
2023-02-18T17:11:44.892Z,14.10
2023-02-18T17:15:49.666Z,14.20
2023-02-18T17:19:52.542Z,14.20
2023-02-18T17:23:55.309Z,14.20
2023-02-18T17:27:59.466Z,14.20
2023-02-18T17:32:02.352Z,14.00
2023-02-18T17:36:05.574Z,14.00
2023-02-18T17:40:13.732Z,13.90
2023-02-18T17:44:20.427Z,14.10
2023-02-18T17:48:23.384Z,13.80
2023-02-18T17:52:31.697Z,14.00
2023-02-18T17:56:36.199Z,13.80
2023-02-18T18:00:42.558Z,13.70
2023-02-18T18:04:45.374Z,13.90
2023-02-18T18:08:49.337Z,13.70
2023-02-18T18:12:52.629Z,13.90
2023-02-18T18:16:56.851Z,13.70
2023-02-18T18:21:02.032Z,13.70
2023-02-18T18:25:17.823Z,13.60
2023-02-18T18:29:20.644Z,13.70
2023-02-18T18:33:27.007Z,13.60
2023-02-18T18:37:29.856Z,13.70
2023-02-18T18:41:32.627Z,13.50
2023-02-18T18:45:37.759Z,13.50
2023-02-18T18:49:42.043Z,13.40
2023-02-18T18:53:45.070Z,13.70
2023-02-18T18:57:48.037Z,13.90
2023-02-18T19:01:50.953Z,13.70
2023-02-18T19:05:55.497Z,13.70
2023-02-18T19:09:58.256Z,13.80
2023-02-18T19:14:01.047Z,13.60
2023-02-18T19:18:03.871Z,13.60
2023-02-18T19:22:07.981Z,13.70
2023-02-18T19:26:11.156Z,13.60
2023-02-18T19:30:16.210Z,13.60
2023-02-18T19:34:19.018Z,13.70
2023-02-18T19:38:23.125Z,13.70
2023-02-18T19:42:25.928Z,13.60
2023-02-18T19:46:28.908Z,13.40
2023-02-18T19:50:31.753Z,13.40
2023-02-18T19:54:35.986Z,13.40
2023-02-18T19:58:40.526Z,13.40
2023-02-18T20:02:43.654Z,13.40
2023-02-18T20:06:46.513Z,13.40
2023-02-18T20:10:58.648Z,13.40
2023-02-18T20:15:01.416Z,13.40
2023-02-18T20:19:04.482Z,13.20
2023-02-18T20:23:07.178Z,13.30
2023-02-18T20:27:11.635Z,13.20
2023-02-18T20:31:15.354Z,13.30
2023-02-18T20:35:18.487Z,13.20
2023-02-18T20:39:22.591Z,13.20
2023-02-18T20:43:31.633Z,13.20
2023-02-18T20:47:34.485Z,13.10
2023-02-18T20:51:37.282Z,13.30
2023-02-18T20:55:47.575Z,13.30
2023-02-18T20:59:51.772Z,13.20
2023-02-18T21:03:54.648Z,13.20
2023-02-18T21:07:57.493Z,13.40
2023-02-18T21:12:00.300Z,13.20
2023-02-18T21:16:06.559Z,13.40
2023-02-18T21:20:09.896Z,13.30
2023-02-18T21:24:12.971Z,13.20
2023-02-18T21:28:16.460Z,13.10
2023-02-18T21:32:20.714Z,13.20
2023-02-18T21:36:24.328Z,13.20
2023-02-18T21:40:27.332Z,13.00
2023-02-18T21:44:41.712Z,13.00
2023-02-18T21:49:09.847Z,13.00
2023-02-18T21:53:13.209Z,12.90
2023-02-18T21:57:17.584Z,12.90
2023-02-18T22:01:20.515Z,12.80
2023-02-18T22:05:26.046Z,12.90
2023-02-18T22:09:29.008Z,12.90
2023-02-18T22:13:31.811Z,12.90
2023-02-18T22:17:34.869Z,12.80
2023-02-18T22:21:39.524Z,12.80
2023-02-18T22:25:42.284Z,12.90
2023-02-18T22:29:47.137Z,12.80
2023-02-18T22:33:51.270Z,12.90
2023-02-18T22:37:55.422Z,12.60
2023-02-18T22:41:58.199Z,12.80
2023-02-18T22:46:04.076Z,12.60
2023-02-18T22:50:07.663Z,12.70
2023-02-18T22:54:14.215Z,12.70
2023-02-18T22:58:17.016Z,12.70
2023-02-18T23:02:21.158Z,12.50
2023-02-18T23:06:24.080Z,12.80
2023-02-18T23:10:28.198Z,12.60
2023-02-18T23:14:31.274Z,12.70
2023-02-18T23:18:35.519Z,12.50
2023-02-18T23:22:38.377Z,12.80
2023-02-18T23:26:42.590Z,12.50
2023-02-18T23:30:45.481Z,12.80
2023-02-18T23:34:49.989Z,12.60
2023-02-18T23:38:54.129Z,12.50
2023-02-18T23:42:58.405Z,12.50
2023-02-18T23:47:01.245Z,12.70
2023-02-18T23:51:06.376Z,12.60
2023-02-18T23:55:09.533Z,12.60
2023-02-18T23:59:14.325Z,12.80
